sensor_id;sensor_type;location;lat;lon;timestamp;temperature;humidity
11577;DHT22;5844;51.496;6.788;2023-03-21T00:00:28;11.10;99.90
11577;DHT22;5844;51.496;6.788;2023-03-21T00:02:54;11.10;99.90
11577;DHT22;5844;51.496;6.788;2023-03-21T00:05:19;11.10;99.90
11577;DHT22;5844;51.496;6.788;2023-03-21T00:07:46;11.10;99.90
11577;DHT22;5844;51.496;6.788;2023-03-21T00:10:12;11.10;99.90
11577;DHT22;5844;51.496;6.788;2023-03-21T00:12:38;11.10;99.90
11577;DHT22;5844;51.496;6.788;2023-03-21T00:15:05;11.10;99.90
11577;DHT22;5844;51.496;6.788;2023-03-21T00:17:32;11.10;99.90
11577;DHT22;5844;51.496;6.788;2023-03-21T00:20:02;11.10;99.90
11577;DHT22;5844;51.496;6.788;2023-03-21T00:22:33;11.10;99.90
11577;DHT22;5844;51.496;6.788;2023-03-21T00:24:59;11.00;99.90
11577;DHT22;5844;51.496;6.788;2023-03-21T00:27:25;11.00;99.90
11577;DHT22;5844;51.496;6.788;2023-03-21T00:29:51;10.90;99.90
11577;DHT22;5844;51.496;6.788;2023-03-21T00:32:19;10.90;99.90
11577;DHT22;5844;51.496;6.788;2023-03-21T00:34:46;10.90;99.90
11577;DHT22;5844;51.496;6.788;2023-03-21T00:37:13;10.90;99.90
11577;DHT22;5844;51.496;6.788;2023-03-21T00:39:41;10.90;99.90
11577;DHT22;5844;51.496;6.788;2023-03-21T00:42:08;10.90;99.90
11577;DHT22;5844;51.496;6.788;2023-03-21T00:44:34;10.80;99.90
11577;DHT22;5844;51.496;6.788;2023-03-21T00:47:14;10.80;99.90
11577;DHT22;5844;51.496;6.788;2023-03-21T00:49:40;10.90;99.90
11577;DHT22;5844;51.496;6.788;2023-03-21T00:52:07;10.90;99.90
11577;DHT22;5844;51.496;6.788;2023-03-21T00:54:34;10.90;99.90
11577;DHT22;5844;51.496;6.788;2023-03-21T00:57:01;10.90;99.90
11577;DHT22;5844;51.496;6.788;2023-03-21T00:59:29;11.00;99.90
11577;DHT22;5844;51.496;6.788;2023-03-21T01:01:55;11.00;99.90
11577;DHT22;5844;51.496;6.788;2023-03-21T01:04:24;11.00;99.90
11577;DHT22;5844;51.496;6.788;2023-03-21T01:06:50;10.90;99.90
11577;DHT22;5844;51.496;6.788;2023-03-21T01:09:19;10.80;99.90
11577;DHT22;5844;51.496;6.788;2023-03-21T01:11:46;10.80;99.90
11577;DHT22;5844;51.496;6.788;2023-03-21T01:14:13;10.80;99.90
11577;DHT22;5844;51.496;6.788;2023-03-21T01:16:41;10.80;99.90
11577;DHT22;5844;51.496;6.788;2023-03-21T01:19:07;10.70;99.90
11577;DHT22;5844;51.496;6.788;2023-03-21T01:21:34;10.80;99.90
11577;DHT22;5844;51.496;6.788;2023-03-21T01:24:00;10.80;99.90
11577;DHT22;5844;51.496;6.788;2023-03-21T01:26:27;10.80;99.90
11577;DHT22;5844;51.496;6.788;2023-03-21T01:28:52;10.90;99.90
11577;DHT22;5844;51.496;6.788;2023-03-21T01:31:18;10.90;99.90
11577;DHT22;5844;51.496;6.788;2023-03-21T01:33:44;10.80;99.90
11577;DHT22;5844;51.496;6.788;2023-03-21T01:36:30;10.80;99.90
11577;DHT22;5844;51.496;6.788;2023-03-21T01:38:55;10.80;99.90
11577;DHT22;5844;51.496;6.788;2023-03-21T01:41:25;10.80;99.90
11577;DHT22;5844;51.496;6.788;2023-03-21T01:43:52;10.80;99.90
11577;DHT22;5844;51.496;6.788;2023-03-21T01:46:29;10.80;99.90
11577;DHT22;5844;51.496;6.788;2023-03-21T01:49:00;10.80;99.90
11577;DHT22;5844;51.496;6.788;2023-03-21T01:51:29;10.70;99.90
11577;DHT22;5844;51.496;6.788;2023-03-21T01:53:56;10.70;99.90
11577;DHT22;5844;51.496;6.788;2023-03-21T01:56:34;10.80;99.90
11577;DHT22;5844;51.496;6.788;2023-03-21T01:59:08;10.70;99.90
11577;DHT22;5844;51.496;6.788;2023-03-21T02:01:35;10.70;99.90
11577;DHT22;5844;51.496;6.788;2023-03-21T02:04:03;10.70;99.90
11577;DHT22;5844;51.496;6.788;2023-03-21T02:06:38;10.80;99.90
11577;DHT22;5844;51.496;6.788;2023-03-21T02:09:08;10.80;99.90
11577;DHT22;5844;51.496;6.788;2023-03-21T02:11:35;10.70;99.90
11577;DHT22;5844;51.496;6.788;2023-03-21T02:14:01;10.70;99.90
11577;DHT22;5844;51.496;6.788;2023-03-21T02:27:21;10.60;99.90
11577;DHT22;5844;51.496;6.788;2023-03-21T02:43:53;10.60;99.90
11577;DHT22;5844;51.496;6.788;2023-03-21T02:46:36;10.60;99.90
11577;DHT22;5844;51.496;6.788;2023-03-21T02:49:18;10.50;99.90
11577;DHT22;5844;51.496;6.788;2023-03-21T02:51:47;10.40;99.90
11577;DHT22;5844;51.496;6.788;2023-03-21T02:54:17;10.40;99.90
11577;DHT22;5844;51.496;6.788;2023-03-21T02:56:44;10.40;99.90
11577;DHT22;5844;51.496;6.788;2023-03-21T02:59:12;10.50;99.90
11577;DHT22;5844;51.496;6.788;2023-03-21T03:01:38;10.40;99.90
11577;DHT22;5844;51.496;6.788;2023-03-21T03:04:23;10.30;99.90
11577;DHT22;5844;51.496;6.788;2023-03-21T03:10:35;10.40;99.90
11577;DHT22;5844;51.496;6.788;2023-03-21T03:12:56;10.30;99.90
11577;DHT22;5844;51.496;6.788;2023-03-21T03:15:34;10.30;99.90
11577;DHT22;5844;51.496;6.788;2023-03-21T03:18:12;10.30;99.90
11577;DHT22;5844;51.496;6.788;2023-03-21T03:25:57;10.30;99.90
11577;DHT22;5844;51.496;6.788;2023-03-21T03:28:30;10.30;99.90
11577;DHT22;5844;51.496;6.788;2023-03-21T03:30:57;10.30;99.90
11577;DHT22;5844;51.496;6.788;2023-03-21T03:33:25;10.20;99.90
11577;DHT22;5844;51.496;6.788;2023-03-21T03:35:53;10.20;99.90
11577;DHT22;5844;51.496;6.788;2023-03-21T03:38:21;10.20;99.90
11577;DHT22;5844;51.496;6.788;2023-03-21T03:40:53;10.20;99.90
11577;DHT22;5844;51.496;6.788;2023-03-21T03:43:26;10.20;99.90
11577;DHT22;5844;51.496;6.788;2023-03-21T03:45:58;10.20;99.90
11577;DHT22;5844;51.496;6.788;2023-03-21T03:48:28;10.20;99.90
11577;DHT22;5844;51.496;6.788;2023-03-21T03:51:11;10.20;99.90
11577;DHT22;5844;51.496;6.788;2023-03-21T03:53:43;10.20;99.90
11577;DHT22;5844;51.496;6.788;2023-03-21T03:56:10;10.20;99.90
11577;DHT22;5844;51.496;6.788;2023-03-21T03:58:37;10.20;99.90
11577;DHT22;5844;51.496;6.788;2023-03-21T04:01:06;10.30;99.90
11577;DHT22;5844;51.496;6.788;2023-03-21T04:03:34;10.30;99.90
11577;DHT22;5844;51.496;6.788;2023-03-21T04:06:00;10.30;99.90
11577;DHT22;5844;51.496;6.788;2023-03-21T04:08:25;10.30;99.90
11577;DHT22;5844;51.496;6.788;2023-03-21T04:10:51;10.30;99.90
11577;DHT22;5844;51.496;6.788;2023-03-21T04:13:17;10.30;99.90
11577;DHT22;5844;51.496;6.788;2023-03-21T04:15:43;10.40;99.90
11577;DHT22;5844;51.496;6.788;2023-03-21T04:18:09;10.30;99.90
11577;DHT22;5844;51.496;6.788;2023-03-21T04:20:35;10.40;99.90
11577;DHT22;5844;51.496;6.788;2023-03-21T04:23:00;10.40;99.90
11577;DHT22;5844;51.496;6.788;2023-03-21T04:25:26;10.50;99.90
11577;DHT22;5844;51.496;6.788;2023-03-21T04:27:55;10.40;99.90
11577;DHT22;5844;51.496;6.788;2023-03-21T04:30:21;10.40;99.90
11577;DHT22;5844;51.496;6.788;2023-03-21T04:32:50;10.40;99.90
11577;DHT22;5844;51.496;6.788;2023-03-21T04:35:19;10.40;99.90
11577;DHT22;5844;51.496;6.788;2023-03-21T04:37:45;10.40;99.90
11577;DHT22;5844;51.496;6.788;2023-03-21T04:40:11;10.40;99.90
11577;DHT22;5844;51.496;6.788;2023-03-21T04:42:41;10.40;99.90
11577;DHT22;5844;51.496;6.788;2023-03-21T04:45:07;10.40;99.90
11577;DHT22;5844;51.496;6.788;2023-03-21T04:47:32;10.40;99.90
11577;DHT22;5844;51.496;6.788;2023-03-21T04:49:58;10.40;99.90
11577;DHT22;5844;51.496;6.788;2023-03-21T04:52:24;10.40;99.90
11577;DHT22;5844;51.496;6.788;2023-03-21T04:54:49;10.30;99.90
11577;DHT22;5844;51.496;6.788;2023-03-21T04:57:16;10.20;99.90
11577;DHT22;5844;51.496;6.788;2023-03-21T04:59:41;10.10;99.90
11577;DHT22;5844;51.496;6.788;2023-03-21T05:02:07;10.10;99.90
11577;DHT22;5844;51.496;6.788;2023-03-21T05:04:33;10.20;99.90
11577;DHT22;5844;51.496;6.788;2023-03-21T05:06:58;10.20;99.90
11577;DHT22;5844;51.496;6.788;2023-03-21T05:09:24;10.00;99.90
11577;DHT22;5844;51.496;6.788;2023-03-21T05:11:50;10.00;99.90
11577;DHT22;5844;51.496;6.788;2023-03-21T05:14:19;9.90;99.90
11577;DHT22;5844;51.496;6.788;2023-03-21T05:16:47;9.80;99.90
11577;DHT22;5844;51.496;6.788;2023-03-21T05:19:18;9.90;99.90
11577;DHT22;5844;51.496;6.788;2023-03-21T05:21:45;9.80;99.90
11577;DHT22;5844;51.496;6.788;2023-03-21T05:24:17;9.80;99.90
11577;DHT22;5844;51.496;6.788;2023-03-21T05:26:45;9.70;99.90
11577;DHT22;5844;51.496;6.788;2023-03-21T05:29:18;9.70;99.90
11577;DHT22;5844;51.496;6.788;2023-03-21T05:31:44;9.60;99.90
11577;DHT22;5844;51.496;6.788;2023-03-21T05:34:11;9.60;99.90
11577;DHT22;5844;51.496;6.788;2023-03-21T05:36:37;9.70;99.90
11577;DHT22;5844;51.496;6.788;2023-03-21T05:39:03;9.70;99.90
11577;DHT22;5844;51.496;6.788;2023-03-21T05:41:29;9.70;99.90
11577;DHT22;5844;51.496;6.788;2023-03-21T05:43:55;9.60;99.90
11577;DHT22;5844;51.496;6.788;2023-03-21T05:46:20;9.50;99.90
11577;DHT22;5844;51.496;6.788;2023-03-21T05:48:46;9.80;99.90
11577;DHT22;5844;51.496;6.788;2023-03-21T05:51:11;9.50;99.90
11577;DHT22;5844;51.496;6.788;2023-03-21T05:53:37;9.50;99.90
11577;DHT22;5844;51.496;6.788;2023-03-21T05:56:03;9.50;99.90
11577;DHT22;5844;51.496;6.788;2023-03-21T05:58:29;9.50;99.90
11577;DHT22;5844;51.496;6.788;2023-03-21T06:00:55;9.50;99.90
11577;DHT22;5844;51.496;6.788;2023-03-21T06:03:20;9.50;99.90
11577;DHT22;5844;51.496;6.788;2023-03-21T06:05:46;9.50;99.90
11577;DHT22;5844;51.496;6.788;2023-03-21T06:08:11;9.50;99.90
11577;DHT22;5844;51.496;6.788;2023-03-21T06:10:37;9.50;99.90
11577;DHT22;5844;51.496;6.788;2023-03-21T06:13:03;9.50;99.90
11577;DHT22;5844;51.496;6.788;2023-03-21T06:15:29;9.60;99.90
11577;DHT22;5844;51.496;6.788;2023-03-21T06:17:55;9.60;99.90
11577;DHT22;5844;51.496;6.788;2023-03-21T06:20:20;9.60;99.90
11577;DHT22;5844;51.496;6.788;2023-03-21T06:22:46;9.60;99.90
11577;DHT22;5844;51.496;6.788;2023-03-21T06:25:12;9.60;99.90
11577;DHT22;5844;51.496;6.788;2023-03-21T06:27:38;9.70;99.90
11577;DHT22;5844;51.496;6.788;2023-03-21T06:30:04;9.70;99.90
11577;DHT22;5844;51.496;6.788;2023-03-21T06:32:30;9.70;99.90
11577;DHT22;5844;51.496;6.788;2023-03-21T06:34:56;9.70;99.90
11577;DHT22;5844;51.496;6.788;2023-03-21T06:37:22;9.70;99.90
11577;DHT22;5844;51.496;6.788;2023-03-21T06:39:47;9.70;99.90
11577;DHT22;5844;51.496;6.788;2023-03-21T06:42:13;9.70;99.90
11577;DHT22;5844;51.496;6.788;2023-03-21T06:44:39;9.70;99.90
11577;DHT22;5844;51.496;6.788;2023-03-21T06:47:07;9.70;99.90
11577;DHT22;5844;51.496;6.788;2023-03-21T06:49:33;9.70;99.90
11577;DHT22;5844;51.496;6.788;2023-03-21T06:51:58;9.70;99.90
11577;DHT22;5844;51.496;6.788;2023-03-21T06:54:24;9.70;99.90
11577;DHT22;5844;51.496;6.788;2023-03-21T06:56:50;9.90;99.90
11577;DHT22;5844;51.496;6.788;2023-03-21T06:59:16;9.90;99.90
11577;DHT22;5844;51.496;6.788;2023-03-21T07:01:41;10.00;99.90
11577;DHT22;5844;51.496;6.788;2023-03-21T07:04:08;10.10;99.90
11577;DHT22;5844;51.496;6.788;2023-03-21T07:06:34;10.10;99.90
11577;DHT22;5844;51.496;6.788;2023-03-21T07:09:00;10.30;99.90
11577;DHT22;5844;51.496;6.788;2023-03-21T07:11:26;10.30;99.90
11577;DHT22;5844;51.496;6.788;2023-03-21T07:13:52;10.30;99.90
11577;DHT22;5844;51.496;6.788;2023-03-21T07:16:19;10.40;99.90
11577;DHT22;5844;51.496;6.788;2023-03-21T07:18:46;10.30;99.90
11577;DHT22;5844;51.496;6.788;2023-03-21T07:21:12;10.40;99.90
11577;DHT22;5844;51.496;6.788;2023-03-21T07:23:37;10.40;99.90
11577;DHT22;5844;51.496;6.788;2023-03-21T07:26:03;10.40;99.90
11577;DHT22;5844;51.496;6.788;2023-03-21T07:28:29;10.50;99.90
11577;DHT22;5844;51.496;6.788;2023-03-21T07:30:59;10.50;99.90
11577;DHT22;5844;51.496;6.788;2023-03-21T07:33:26;10.60;99.90
11577;DHT22;5844;51.496;6.788;2023-03-21T07:35:53;10.70;99.90
11577;DHT22;5844;51.496;6.788;2023-03-21T07:38:19;10.70;99.90
11577;DHT22;5844;51.496;6.788;2023-03-21T07:40:46;10.70;99.90
11577;DHT22;5844;51.496;6.788;2023-03-21T07:43:13;10.80;99.90
11577;DHT22;5844;51.496;6.788;2023-03-21T07:45:40;10.80;99.90
11577;DHT22;5844;51.496;6.788;2023-03-21T07:48:08;10.80;99.90
11577;DHT22;5844;51.496;6.788;2023-03-21T07:50:35;10.90;99.90
11577;DHT22;5844;51.496;6.788;2023-03-21T07:53:01;10.90;99.90
11577;DHT22;5844;51.496;6.788;2023-03-21T07:55:27;11.00;99.90
11577;DHT22;5844;51.496;6.788;2023-03-21T07:57:53;10.90;99.90
11577;DHT22;5844;51.496;6.788;2023-03-21T08:00:19;10.90;99.90
11577;DHT22;5844;51.496;6.788;2023-03-21T08:02:50;11.00;99.90
11577;DHT22;5844;51.496;6.788;2023-03-21T08:05:20;11.00;99.90
11577;DHT22;5844;51.496;6.788;2023-03-21T08:07:45;11.00;99.90
11577;DHT22;5844;51.496;6.788;2023-03-21T08:10:12;11.00;99.90
11577;DHT22;5844;51.496;6.788;2023-03-21T08:12:38;11.00;99.90
11577;DHT22;5844;51.496;6.788;2023-03-21T08:15:04;11.00;99.90
11577;DHT22;5844;51.496;6.788;2023-03-21T08:17:29;11.00;99.90
11577;DHT22;5844;51.496;6.788;2023-03-21T08:19:55;11.00;99.90
11577;DHT22;5844;51.496;6.788;2023-03-21T08:22:21;11.00;99.90
11577;DHT22;5844;51.496;6.788;2023-03-21T08:24:47;11.00;99.90
11577;DHT22;5844;51.496;6.788;2023-03-21T08:27:12;11.00;99.90
11577;DHT22;5844;51.496;6.788;2023-03-21T08:29:38;11.00;99.90
11577;DHT22;5844;51.496;6.788;2023-03-21T08:32:07;11.00;99.90
11577;DHT22;5844;51.496;6.788;2023-03-21T08:34:33;11.00;99.90
11577;DHT22;5844;51.496;6.788;2023-03-21T08:36:59;11.00;99.90
11577;DHT22;5844;51.496;6.788;2023-03-21T08:39:25;10.90;99.90
11577;DHT22;5844;51.496;6.788;2023-03-21T08:41:51;10.90;99.90
11577;DHT22;5844;51.496;6.788;2023-03-21T08:44:17;10.90;99.90
11577;DHT22;5844;51.496;6.788;2023-03-21T08:46:43;10.90;99.90
11577;DHT22;5844;51.496;6.788;2023-03-21T08:49:09;11.00;99.90
11577;DHT22;5844;51.496;6.788;2023-03-21T08:51:34;11.00;99.90
11577;DHT22;5844;51.496;6.788;2023-03-21T08:54:02;11.00;99.90
11577;DHT22;5844;51.496;6.788;2023-03-21T08:56:27;11.00;99.90
11577;DHT22;5844;51.496;6.788;2023-03-21T08:58:53;10.80;99.90
11577;DHT22;5844;51.496;6.788;2023-03-21T09:01:19;10.80;99.90
11577;DHT22;5844;51.496;6.788;2023-03-21T09:03:44;10.80;99.90
11577;DHT22;5844;51.496;6.788;2023-03-21T09:06:10;10.80;99.90
11577;DHT22;5844;51.496;6.788;2023-03-21T09:08:39;11.00;99.90
11577;DHT22;5844;51.496;6.788;2023-03-21T09:11:07;10.90;99.90
11577;DHT22;5844;51.496;6.788;2023-03-21T09:13:32;10.90;99.90
11577;DHT22;5844;51.496;6.788;2023-03-21T09:15:58;10.80;99.90
11577;DHT22;5844;51.496;6.788;2023-03-21T09:18:28;10.80;99.90
11577;DHT22;5844;51.496;6.788;2023-03-21T09:21:25;10.70;99.90
11577;DHT22;5844;51.496;6.788;2023-03-21T09:23:53;10.70;99.90
11577;DHT22;5844;51.496;6.788;2023-03-21T09:26:21;10.60;99.90
11577;DHT22;5844;51.496;6.788;2023-03-21T09:28:47;10.60;99.90
11577;DHT22;5844;51.496;6.788;2023-03-21T09:31:14;10.80;99.90
11577;DHT22;5844;51.496;6.788;2023-03-21T09:33:41;10.80;99.90
11577;DHT22;5844;51.496;6.788;2023-03-21T09:36:09;10.80;99.90
11577;DHT22;5844;51.496;6.788;2023-03-21T09:38:44;10.70;99.90
11577;DHT22;5844;51.496;6.788;2023-03-21T09:49:38;11.10;99.90
11577;DHT22;5844;51.496;6.788;2023-03-21T09:52:16;11.00;99.90
11577;DHT22;5844;51.496;6.788;2023-03-21T09:54:44;11.10;99.90
11577;DHT22;5844;51.496;6.788;2023-03-21T09:57:24;11.20;99.90
11577;DHT22;5844;51.496;6.788;2023-03-21T09:59:52;11.20;99.90
11577;DHT22;5844;51.496;6.788;2023-03-21T10:02:35;11.20;99.90
11577;DHT22;5844;51.496;6.788;2023-03-21T10:05:11;11.30;99.90
11577;DHT22;5844;51.496;6.788;2023-03-21T10:07:45;11.30;99.90
11577;DHT22;5844;51.496;6.788;2023-03-21T10:10:18;11.40;99.90
11577;DHT22;5844;51.496;6.788;2023-03-21T10:12:47;11.50;99.90
11577;DHT22;5844;51.496;6.788;2023-03-21T10:15:20;11.60;99.90
11577;DHT22;5844;51.496;6.788;2023-03-21T10:18:04;11.70;99.90
11577;DHT22;5844;51.496;6.788;2023-03-21T10:20:35;11.70;99.90
11577;DHT22;5844;51.496;6.788;2023-03-21T10:23:04;11.60;99.90
11577;DHT22;5844;51.496;6.788;2023-03-21T10:25:37;11.50;99.90
11577;DHT22;5844;51.496;6.788;2023-03-21T10:28:05;11.40;99.90
11577;DHT22;5844;51.496;6.788;2023-03-21T10:33:02;11.10;99.90
11577;DHT22;5844;51.496;6.788;2023-03-21T10:35:30;11.10;99.90
11577;DHT22;5844;51.496;6.788;2023-03-21T10:37:59;11.10;99.90
11577;DHT22;5844;51.496;6.788;2023-03-21T10:40:26;11.00;99.90
11577;DHT22;5844;51.496;6.788;2023-03-21T10:43:14;11.00;99.90
11577;DHT22;5844;51.496;6.788;2023-03-21T10:45:39;11.00;99.90
11577;DHT22;5844;51.496;6.788;2023-03-21T10:48:07;11.10;99.90
11577;DHT22;5844;51.496;6.788;2023-03-21T10:50:33;11.10;99.90
11577;DHT22;5844;51.496;6.788;2023-03-21T10:53:00;11.00;99.90
11577;DHT22;5844;51.496;6.788;2023-03-21T10:55:33;11.10;99.90
11577;DHT22;5844;51.496;6.788;2023-03-21T10:58:13;11.10;99.90
11577;DHT22;5844;51.496;6.788;2023-03-21T11:00:43;11.10;99.90
11577;DHT22;5844;51.496;6.788;2023-03-21T11:03:25;11.20;99.90
11577;DHT22;5844;51.496;6.788;2023-03-21T11:06:21;11.30;99.90
11577;DHT22;5844;51.496;6.788;2023-03-21T11:08:54;11.30;99.90
11577;DHT22;5844;51.496;6.788;2023-03-21T11:11:32;11.40;99.90
11577;DHT22;5844;51.496;6.788;2023-03-21T11:14:03;11.50;99.90
11577;DHT22;5844;51.496;6.788;2023-03-21T11:16:37;11.60;99.90
11577;DHT22;5844;51.496;6.788;2023-03-21T11:19:15;11.70;99.90
11577;DHT22;5844;51.496;6.788;2023-03-21T11:21:41;11.70;99.90
11577;DHT22;5844;51.496;6.788;2023-03-21T11:24:15;11.70;99.90
11577;DHT22;5844;51.496;6.788;2023-03-21T11:26:43;11.70;99.90
11577;DHT22;5844;51.496;6.788;2023-03-21T11:29:49;11.80;99.90
11577;DHT22;5844;51.496;6.788;2023-03-21T11:32:10;11.80;99.90
11577;DHT22;5844;51.496;6.788;2023-03-21T11:37:21;12.10;99.90
11577;DHT22;5844;51.496;6.788;2023-03-21T11:39:54;12.20;99.90
11577;DHT22;5844;51.496;6.788;2023-03-21T11:42:29;12.40;99.90
11577;DHT22;5844;51.496;6.788;2023-03-21T11:45:14;12.60;99.90
11577;DHT22;5844;51.496;6.788;2023-03-21T11:47:40;12.70;99.90
11577;DHT22;5844;51.496;6.788;2023-03-21T11:50:25;12.80;99.90
11577;DHT22;5844;51.496;6.788;2023-03-21T11:58:30;12.90;99.90
11577;DHT22;5844;51.496;6.788;2023-03-21T12:01:11;12.90;99.90
11577;DHT22;5844;51.496;6.788;2023-03-21T12:03:58;13.00;99.90
11577;DHT22;5844;51.496;6.788;2023-03-21T12:09:13;12.90;99.90
11577;DHT22;5844;51.496;6.788;2023-03-21T12:15:29;12.90;99.90
11577;DHT22;5844;51.496;6.788;2023-03-21T12:17:58;12.80;99.90
11577;DHT22;5844;51.496;6.788;2023-03-21T12:23:44;12.80;99.90
11577;DHT22;5844;51.496;6.788;2023-03-21T12:26:19;12.70;99.90
11577;DHT22;5844;51.496;6.788;2023-03-21T12:37:04;12.60;99.90
11577;DHT22;5844;51.496;6.788;2023-03-21T12:39:35;12.60;99.90
11577;DHT22;5844;51.496;6.788;2023-03-21T12:44:32;12.60;99.90
11577;DHT22;5844;51.496;6.788;2023-03-21T12:49:37;12.70;99.90
11577;DHT22;5844;51.496;6.788;2023-03-21T12:52:09;12.90;99.90
11577;DHT22;5844;51.496;6.788;2023-03-21T12:54:43;13.10;99.90
11577;DHT22;5844;51.496;6.788;2023-03-21T12:57:20;13.20;99.90
11577;DHT22;5844;51.496;6.788;2023-03-21T13:00:19;13.40;99.90
11577;DHT22;5844;51.496;6.788;2023-03-21T13:10:34;13.40;99.90
11577;DHT22;5844;51.496;6.788;2023-03-21T13:13:35;13.30;99.90
11577;DHT22;5844;51.496;6.788;2023-03-21T13:16:29;13.10;99.90
11577;DHT22;5844;51.496;6.788;2023-03-21T13:19:43;13.10;99.90
11577;DHT22;5844;51.496;6.788;2023-03-21T13:22:27;13.30;99.90
11577;DHT22;5844;51.496;6.788;2023-03-21T13:25:05;13.60;99.90
11577;DHT22;5844;51.496;6.788;2023-03-21T13:27:35;13.60;99.90
11577;DHT22;5844;51.496;6.788;2023-03-21T13:30:22;13.80;99.90
11577;DHT22;5844;51.496;6.788;2023-03-21T13:32:54;13.90;99.90
11577;DHT22;5844;51.496;6.788;2023-03-21T13:35:35;14.10;99.90
11577;DHT22;5844;51.496;6.788;2023-03-21T13:38:20;14.60;99.90
11577;DHT22;5844;51.496;6.788;2023-03-21T13:40:54;14.20;99.90
11577;DHT22;5844;51.496;6.788;2023-03-21T13:43:44;14.10;99.90
11577;DHT22;5844;51.496;6.788;2023-03-21T13:48:58;14.80;99.90
11577;DHT22;5844;51.496;6.788;2023-03-21T13:54:00;14.30;1.00
11577;DHT22;5844;51.496;6.788;2023-03-21T13:56:26;14.30;1.00
11577;DHT22;5844;51.496;6.788;2023-03-21T13:58:57;14.20;1.00
11577;DHT22;5844;51.496;6.788;2023-03-21T14:04:03;14.40;1.00
11577;DHT22;5844;51.496;6.788;2023-03-21T14:06:58;14.40;1.00
11577;DHT22;5844;51.496;6.788;2023-03-21T14:09:45;14.60;1.00
11577;DHT22;5844;51.496;6.788;2023-03-21T14:12:17;14.60;1.00
11577;DHT22;5844;51.496;6.788;2023-03-21T14:14:53;14.90;1.00
11577;DHT22;5844;51.496;6.788;2023-03-21T14:17:27;15.10;1.00
11577;DHT22;5844;51.496;6.788;2023-03-21T14:20:07;15.70;1.00
11577;DHT22;5844;51.496;6.788;2023-03-21T14:22:38;16.60;17.50
11577;DHT22;5844;51.496;6.788;2023-03-21T14:25:11;17.10;6.60
11577;DHT22;5844;51.496;6.788;2023-03-21T14:27:46;16.50;21.60
11577;DHT22;5844;51.496;6.788;2023-03-21T14:30:34;15.90;25.30
11577;DHT22;5844;51.496;6.788;2023-03-21T14:35:42;14.80;16.50
11577;DHT22;5844;51.496;6.788;2023-03-21T14:38:19;14.60;17.10
11577;DHT22;5844;51.496;6.788;2023-03-21T14:40:48;14.20;24.10
11577;DHT22;5844;51.496;6.788;2023-03-21T14:43:14;14.20;34.70
11577;DHT22;5844;51.496;6.788;2023-03-21T14:45:40;14.30;47.40
11577;DHT22;5844;51.496;6.788;2023-03-21T14:48:14;14.40;43.70
11577;DHT22;5844;51.496;6.788;2023-03-21T14:50:48;14.40;32.20
11577;DHT22;5844;51.496;6.788;2023-03-21T14:53:32;14.70;30.90
11577;DHT22;5844;51.496;6.788;2023-03-21T14:56:20;14.90;42.50
11577;DHT22;5844;51.496;6.788;2023-03-21T14:58:46;15.10;35.40
11577;DHT22;5844;51.496;6.788;2023-03-21T15:01:16;15.30;45.00
11577;DHT22;5844;51.496;6.788;2023-03-21T15:03:46;15.40;36.40
11577;DHT22;5844;51.496;6.788;2023-03-21T15:06:14;15.50;39.30
11577;DHT22;5844;51.496;6.788;2023-03-21T15:08:56;16.30;31.70
11577;DHT22;5844;51.496;6.788;2023-03-21T15:11:36;16.80;31.20
11577;DHT22;5844;51.496;6.788;2023-03-21T15:14:06;17.00;15.20
11577;DHT22;5844;51.496;6.788;2023-03-21T15:16:32;17.60;32.90
11577;DHT22;5844;51.496;6.788;2023-03-21T15:19:00;18.80;13.00
11577;DHT22;5844;51.496;6.788;2023-03-21T15:21:54;18.70;22.30
11577;DHT22;5844;51.496;6.788;2023-03-21T15:24:46;18.40;23.60
11577;DHT22;5844;51.496;6.788;2023-03-21T15:27:15;18.00;35.70
11577;DHT22;5844;51.496;6.788;2023-03-21T15:29:42;18.10;40.40
11577;DHT22;5844;51.496;6.788;2023-03-21T15:32:20;18.80;39.90
11577;DHT22;5844;51.496;6.788;2023-03-21T15:34:47;19.40;10.60
11577;DHT22;5844;51.496;6.788;2023-03-21T15:37:32;19.60;10.50
11577;DHT22;5844;51.496;6.788;2023-03-21T15:42:40;20.30;8.50
11577;DHT22;5844;51.496;6.788;2023-03-21T15:47:54;18.30;9.40
11577;DHT22;5844;51.496;6.788;2023-03-21T15:50:25;17.90;12.60
11577;DHT22;5844;51.496;6.788;2023-03-21T15:52:52;17.60;15.90
11577;DHT22;5844;51.496;6.788;2023-03-21T15:55:30;17.10;18.00
11577;DHT22;5844;51.496;6.788;2023-03-21T15:58:03;16.30;15.70
11577;DHT22;5844;51.496;6.788;2023-03-21T16:00:40;15.60;28.90
11577;DHT22;5844;51.496;6.788;2023-03-21T16:03:13;15.10;18.80
11577;DHT22;5844;51.496;6.788;2023-03-21T16:05:41;14.80;23.10
11577;DHT22;5844;51.496;6.788;2023-03-21T16:08:25;14.70;29.80
11577;DHT22;5844;51.496;6.788;2023-03-21T16:10:51;14.50;33.50
11577;DHT22;5844;51.496;6.788;2023-03-21T16:13:17;14.20;20.20
11577;DHT22;5844;51.496;6.788;2023-03-21T16:15:43;14.00;14.70
11577;DHT22;5844;51.496;6.788;2023-03-21T16:18:13;13.90;48.80
11577;DHT22;5844;51.496;6.788;2023-03-21T16:20:41;14.00;18.70
11577;DHT22;5844;51.496;6.788;2023-03-21T16:23:11;14.00;34.30
11577;DHT22;5844;51.496;6.788;2023-03-21T16:25:38;14.10;15.50
11577;DHT22;5844;51.496;6.788;2023-03-21T16:28:04;14.10;22.20
11577;DHT22;5844;51.496;6.788;2023-03-21T16:30:29;14.00;18.00
11577;DHT22;5844;51.496;6.788;2023-03-21T16:32:55;14.00;9.70
11577;DHT22;5844;51.496;6.788;2023-03-21T16:35:21;13.90;1.20
11577;DHT22;5844;51.496;6.788;2023-03-21T16:37:48;13.80;15.30
11577;DHT22;5844;51.496;6.788;2023-03-21T16:40:20;13.70;11.70
11577;DHT22;5844;51.496;6.788;2023-03-21T16:42:46;13.70;19.70
11577;DHT22;5844;51.496;6.788;2023-03-21T16:45:12;13.60;21.00
11577;DHT22;5844;51.496;6.788;2023-03-21T16:47:38;13.70;17.50
11577;DHT22;5844;51.496;6.788;2023-03-21T16:50:23;13.60;19.40
11577;DHT22;5844;51.496;6.788;2023-03-21T16:52:51;13.60;17.20
11577;DHT22;5844;51.496;6.788;2023-03-21T16:55:17;13.50;13.60
11577;DHT22;5844;51.496;6.788;2023-03-21T16:57:44;13.50;17.20
11577;DHT22;5844;51.496;6.788;2023-03-21T17:00:16;13.50;18.00
11577;DHT22;5844;51.496;6.788;2023-03-21T17:02:45;13.40;15.50
11577;DHT22;5844;51.496;6.788;2023-03-21T17:05:11;13.50;12.90
11577;DHT22;5844;51.496;6.788;2023-03-21T17:07:37;13.60;10.90
11577;DHT22;5844;51.496;6.788;2023-03-21T17:10:03;13.50;15.70
11577;DHT22;5844;51.496;6.788;2023-03-21T17:12:29;13.40;15.00
11577;DHT22;5844;51.496;6.788;2023-03-21T17:14:54;13.40;12.20
11577;DHT22;5844;51.496;6.788;2023-03-21T17:17:21;13.40;11.70
11577;DHT22;5844;51.496;6.788;2023-03-21T17:19:47;13.40;12.90
11577;DHT22;5844;51.496;6.788;2023-03-21T17:22:12;13.40;12.80
11577;DHT22;5844;51.496;6.788;2023-03-21T17:24:38;13.40;11.50
11577;DHT22;5844;51.496;6.788;2023-03-21T17:27:06;13.40;1.00
11577;DHT22;5844;51.496;6.788;2023-03-21T17:29:32;13.30;1.00
11577;DHT22;5844;51.496;6.788;2023-03-21T17:31:57;13.30;13.80
11577;DHT22;5844;51.496;6.788;2023-03-21T17:34:23;13.30;17.40
11577;DHT22;5844;51.496;6.788;2023-03-21T17:36:49;13.30;12.50
11577;DHT22;5844;51.496;6.788;2023-03-21T17:39:23;13.20;16.80
11577;DHT22;5844;51.496;6.788;2023-03-21T17:41:50;13.20;18.90
11577;DHT22;5844;51.496;6.788;2023-03-21T17:44:16;13.30;13.00